Terminal Aerodrome Forecast
Issued by NWS

Current Version | Previous Version | Graphics & Text | Print | Product List | Glossary On
Versions: 1 2 3 4 5 6 7 8 9 10 11 12 13 14 15 16 17 18 19 20 21 22
000
FTUS41 KRLX 190200 AAA
TAFCKB
TAF AMD
KCKB 190232Z 1903/1924 VRB03KT 6SM -SHSN OVC025
     FM191500 26004KT P6SM OVC025
     FM192000 28005KT P6SM SCT030 SCT250=

USA.gov is the U.S. government's official web portal to all federal, state and local government web resources and services.